Погода Буэнос-Айресна 2 недели

Буэнос-Айрес, Аргентина

03 - 15 марта
  • 03марта
    Сегодня
    +13°
    +25°
    Ясно и безоблачно
    ВремяПогодаТемператураВлажностьДавлениеВетер, м/сВероятность осадков
    00:00Ясно и безоблачно+18°C47 %751 мм6.1 м/с5 %
    03:00Ясно и безоблачно+16°C56 %751 мм3.8 м/с5 %
    06:00Ясно и безоблачно+13°C77 %751 мм2.5 м/с5 %
    09:00Ясно и безоблачно+17°C62 %753 мм1.6 м/с5 %
    12:00Ясно и безоблачно+22°C38 %753 мм2.0 м/с5 %
    15:00Ясно и безоблачно+25°C31 %752 мм2.3 м/с5 %
    18:00Ясно и безоблачно+24°C34 %751 мм3.4 м/с5 %
    21:00Ясно и безоблачно+19°C56 %751 мм2.1 м/с5 %
  • 04марта
    Понедельник
    +11°
    +24°
    Ясно и безоблачно
    ВремяПогодаТемператураВлажностьДавлениеВетер, м/сВероятность осадков
    00:00Ясно и безоблачно+17°C55 %751 мм2.5 м/с5 %
    03:00Ясно и безоблачно+15°C64 %751 мм2.0 м/с5 %
    06:00Ясно и безоблачно+14°C66 %752 мм2.8 м/с5 %
    09:00Ясно и безоблачно+18°C66 %753 мм2.3 м/с5 %
    12:00Ясно и безоблачно+23°C35 %753 мм2.0 м/с5 %
    15:00Ясно и безоблачно+25°C33 %752 мм2.8 м/с5 %
    18:00Небольшая облачность+24°C36 %752 мм4.6 м/с5 %
    21:00Ясно и безоблачно+20°C47 %753 мм5.6 м/с5 %
  • 05марта
    Вторник
    +12°
    +24°
    Облачно с прояснениями
    ВремяПогодаТемператураВлажностьДавлениеВетер, м/сВероятность осадков
    00:00Ясно и безоблачно+16°C64 %754 мм3.7 м/с5 %
    03:00Ясно и безоблачно+14°C75 %753 мм2.1 м/с5 %
    06:00Ясно и безоблачно+13°C85 %753 мм1.7 м/с5 %
    09:00Ясно и безоблачно+17°C76 %754 мм2.3 м/с5 %
    12:00Небольшая облачность+21°C55 %753 мм3.9 м/с2 %
    15:00Облачно с прояснениями+24°C47 %752 мм4.2 м/с5 %
    18:00Ясно и безоблачно+23°C44 %751 мм3.3 м/с5 %
    21:00Ясно и безоблачно+18°C66 %750 мм2.0 м/с5 %
  • 06марта
    Среда
    +17°
    +29°
    Ясно и безоблачно
    ВремяПогодаТемператураВлажностьДавлениеВетер, м/сВероятность осадков
    00:00Ясно и безоблачно+17°C72 %750 мм2.1 м/с5 %
    03:00Ясно и безоблачно+15°C81 %750 мм2.7 м/с5 %
    06:00Ясно и безоблачно+14°C88 %750 мм2.2 м/с5 %
    09:00Ясно и безоблачно+19°C73 %751 мм2.4 м/с5 %
    12:00Ясно и безоблачно+26°C50 %750 мм4.1 м/с5 %
    15:00Ясно и безоблачно+29°C48 %749 мм4.1 м/с5 %
    18:00Ясно и безоблачно+28°C49 %748 мм4.7 м/с3 %
    21:00Ясно и безоблачно+24°C61 %748 мм4.2 м/с3 %
Мы используем cookies
Соглашаюсь